Time;durP1;ratioP1;P1;durP2;ratioP2;P2;SDS_P1;SDS_P2;PMS_P1;PMS_P2;Temp;Humidity;BMP_temperature;BMP_pressure;BME280_temperature;BME280_humidity;BME280_pressure;Samples;Min_cycle;Max_cycle;Signal;HPM_P1;HPM_P2
2022/10/03 00:00:01;;;;;;;1.03;0.93;;;23.30;66.90;;;;;;5053605;28;20455;-84
2022/10/03 00:02:57;;;;;;;1.20;1.10;;;23.50;67.20;;;;;;5053534;28;20460;-90
2022/10/03 00:05:36;;;;;;;1.10;0.90;;;23.30;66.90;;;;;;5053253;28;20477;-89
2022/10/03 00:08:10;;;;;;;1.23;1.13;;;23.30;67.00;;;;;;5053451;28;20916;-90
2022/10/03 00:10:54;;;;;;;1.00;0.87;;;23.30;67.00;;;;;;5053521;28;20807;-85
2022/10/03 00:13:28;;;;;;;1.40;1.30;;;23.30;67.00;;;;;;5053665;28;20924;-85
2022/10/03 00:16:08;;;;;;;1.50;1.40;;;23.30;67.00;;;;;;5053387;28;20963;-88
2022/10/03 00:18:47;;;;;;;1.30;1.20;;;23.30;66.90;;;;;;5053258;28;20448;-89
2022/10/03 00:21:23;;;;;;;1.33;1.20;;;23.30;66.90;;;;;;5055834;28;20448;-85
2022/10/03 00:24:02;;;;;;;1.47;1.00;;;23.30;66.90;;;;;;5057633;28;20447;-85
2022/10/03 00:26:46;;;;;;;1.40;1.30;;;23.30;66.90;;;;;;5057359;28;20443;-85
2022/10/03 00:29:29;;;;;;;1.43;1.17;;;23.30;66.90;;;;;;5057406;28;20480;-85
2022/10/03 00:32:07;;;;;;;1.30;1.20;;;23.20;66.80;;;;;;5057401;28;20468;-85
2022/10/03 00:34:45;;;;;;;1.20;1.10;;;23.20;66.80;;;;;;5057220;28;20776;-85
2022/10/03 00:37:24;;;;;;;1.10;1.00;;;23.20;66.90;;;;;;5057258;28;20822;-85
2022/10/03 00:40:27;;;;;;;1.10;0.93;;;23.30;67.00;;;;;;5057290;28;20430;-89
2022/10/03 00:43:23;;;;;;;1.27;1.17;;;23.20;66.90;;;;;;5057412;28;20433;-85
2022/10/03 00:46:18;;;;;;;1.30;1.20;;;23.20;66.90;;;;;;5057053;28;20932;-90
2022/10/03 00:49:17;;;;;;;1.80;1.20;;;23.20;66.90;;;;;;5057027;28;20441;-84
2022/10/03 00:51:56;;;;;;;1.60;1.10;;;23.20;66.90;;;;;;5055087;28;20465;-84
2022/10/03 00:54:44;;;;;;;1.23;1.13;;;23.20;67.00;;;;;;5057190;28;20849;-90
2022/10/03 00:57:41;;;;;;;1.50;1.00;;;23.20;66.80;;;;;;5056864;28;20445;-90
2022/10/03 01:00:19;;;;;;;1.17;1.07;;;23.20;66.80;;;;;;5055447;28;20445;-89
2022/10/03 01:03:03;;;;;;;1.20;1.10;;;23.20;66.90;;;;;;5056563;28;20465;-85
2022/10/03 01:05:44;;;;;;;1.10;1.00;;;23.20;66.80;;;;;;5056437;28;20479;-85
2022/10/03 01:08:41;;;;;;;1.00;0.90;;;23.20;66.90;;;;;;5056585;28;20425;-90
2022/10/03 01:11:26;;;;;;;1.07;0.97;;;23.20;66.80;;;;;;5056531;28;20488;-85
2022/10/03 01:14:06;;;;;;;1.50;0.90;;;23.20;66.80;;;;;;5056761;28;20486;-90
2022/10/03 01:16:43;;;;;;;1.30;1.20;;;23.20;66.80;;;;;;5056433;28;20441;-90
2022/10/03 01:19:44;;;;;;;1.23;1.03;;;23.20;66.80;;;;;;5056559;28;20498;-85
2022/10/03 01:22:32;;;;;;;1.50;1.40;;;23.20;66.80;;;;;;5056450;28;20455;-90
2022/10/03 01:25:12;;;;;;;1.00;0.87;;;23.20;66.80;;;;;;5056192;28;20453;-85
2022/10/03 01:30:36;;;;;;;1.17;1.07;;;23.20;66.80;;;;;;5055909;28;20460;-88
2022/10/03 01:33:10;;;;;;;1.37;1.27;;;23.40;67.00;;;;;;5055438;28;20443;-85
2022/10/03 01:35:52;;;;;;;1.43;1.20;;;23.20;66.80;;;;;;5056338;28;20484;-88
2022/10/03 01:38:29;;;;;;;1.47;1.20;;;23.20;66.70;;;;;;5056081;28;20445;-85
2022/10/03 01:41:03;;;;;;;1.30;1.20;;;23.20;66.80;;;;;;5056066;28;20437;-85
2022/10/03 01:43:37;;;;;;;1.30;1.20;;;23.20;66.70;;;;;;5055948;28;20481;-85
2022/10/03 01:46:16;;;;;;;1.10;1.00;;;23.20;66.70;;;;;;5056063;28;20422;-85
2022/10/03 01:48:51;;;;;;;1.10;1.00;;;23.20;66.60;;;;;;5055895;28;20491;-85
2022/10/03 01:51:24;;;;;;;1.17;0.90;;;23.20;66.70;;;;;;5055628;28;20500;-89
2022/10/03 01:54:07;;;;;;;1.30;1.20;;;23.20;66.70;;;;;;5055615;28;20441;-85
2022/10/03 01:56:39;;;;;;;1.10;1.00;;;23.20;66.60;;;;;;5055747;28;21009;-87
2022/10/03 01:59:12;;;;;;;1.20;1.10;;;23.20;66.70;;;;;;5055633;28;20454;-85
2022/10/03 02:01:49;;;;;;;1.20;1.10;;;23.20;66.60;;;;;;5055779;28;20472;-86
2022/10/03 02:04:29;;;;;;;1.30;1.20;;;23.20;66.60;;;;;;5055512;28;20476;-85
2022/10/03 02:07:04;;;;;;;1.00;0.90;;;23.20;66.60;;;;;;5055654;28;20795;-85
2022/10/03 02:09:39;;;;;;;2.40;1.10;;;23.20;66.60;;;;;;5055444;28;20821;-89
2022/10/03 02:12:15;;;;;;;1.50;1.40;;;23.20;66.60;;;;;;5055535;28;20452;-85
2022/10/03 02:14:51;;;;;;;1.00;0.90;;;23.20;66.60;;;;;;5055410;28;20631;-84
2022/10/03 02:17:46;;;;;;;2.00;1.13;;;23.20;66.60;;;;;;5055345;28;20919;-88
2022/10/03 02:20:24;;;;;;;1.30;1.20;;;23.20;66.50;;;;;;5055416;28;20448;-84
2022/10/03 02:22:54;;;;;;;1.40;1.00;;;23.20;66.60;;;;;;5055422;28;20452;-90
2022/10/03 02:25:26;;;;;;;1.20;1.10;;;23.20;66.60;;;;;;5055021;28;20430;-85
2022/10/03 02:28:21;;;;;;;1.20;1.10;;;23.20;66.60;;;;;;5055217;28;20448;-90
2022/10/03 02:31:25;;;;;;;1.10;1.00;;;23.20;66.60;;;;;;5054715;28;20815;-85
2022/10/03 02:34:31;;;;;;;1.10;1.00;;;23.20;66.60;;;;;;5054970;28;20429;-90
2022/10/03 02:37:22;;;;;;;1.30;0.97;;;23.20;66.60;;;;;;5013153;28;20450;-85
2022/10/03 02:40:18;;;;;;;1.20;1.10;;;23.10;66.50;;;;;;5021125;28;20452;-89
2022/10/03 02:43:15;;;;;;;1.10;1.00;;;23.20;66.60;;;;;;5054995;28;20465;-85
2022/10/03 02:46:13;;;;;;;0.93;0.83;;;23.10;66.50;;;;;;5054142;28;20529;-89
2022/10/03 02:49:12;;;;;;;1.10;0.93;;;23.10;66.40;;;;;;5054638;28;20445;-87
2022/10/03 02:51:59;;;;;;;1.10;1.00;;;23.10;66.50;;;;;;5053673;28;20481;-89
2022/10/03 02:54:50;;;;;;;1.20;1.10;;;23.10;66.60;;;;;;5054665;28;20446;-85
2022/10/03 02:57:56;;;;;;;1.00;0.90;;;23.10;66.60;;;;;;5054626;28;20444;-90
2022/10/03 03:00:30;;;;;;;1.30;1.20;;;23.10;66.50;;;;;;5054307;28;20441;-89
2022/10/03 03:03:19;;;;;;;1.00;0.90;;;23.10;66.80;;;;;;5054430;28;20433;-85
2022/10/03 03:06:16;;;;;;;1.30;1.20;;;23.10;66.50;;;;;;5054634;28;20905;-85
2022/10/03 03:09:13;;;;;;;1.23;1.13;;;23.10;66.40;;;;;;5054430;28;20456;-84
2022/10/03 03:12:16;;;;;;;1.40;1.30;;;23.10;66.50;;;;;;5054251;28;20489;-84
2022/10/03 03:15:20;;;;;;;1.10;1.00;;;23.10;66.50;;;;;;5054205;28;20449;-89
2022/10/03 03:17:57;;;;;;;1.10;1.00;;;23.10;66.50;;;;;;5043847;28;20449;-85
2022/10/03 03:20:43;;;;;;;1.00;0.90;;;23.10;66.50;;;;;;5054290;28;20451;-90
2022/10/03 03:23:26;;;;;;;1.00;0.90;;;23.10;66.40;;;;;;5054239;28;20437;-85
2022/10/03 03:26:22;;;;;;;1.20;1.10;;;23.10;66.50;;;;;;5054048;28;20444;-85
2022/10/03 03:28:59;;;;;;;1.10;0.93;;;23.10;66.40;;;;;;5054099;28;21150;-89
2022/10/03 03:31:33;;;;;;;1.10;0.90;;;23.10;66.40;;;;;;5052508;28;20495;-84
2022/10/03 03:34:07;;;;;;;1.37;1.27;;;23.10;66.40;;;;;;5053866;28;20908;-85
2022/10/03 03:36:41;;;;;;;1.10;1.00;;;23.10;66.40;;;;;;5053806;28;20432;-90
2022/10/03 03:39:29;;;;;;;1.13;1.03;;;23.10;66.40;;;;;;5054028;28;20574;-85
2022/10/03 03:42:26;;;;;;;1.03;0.87;;;23.10;66.30;;;;;;5053956;28;20932;-84
2022/10/03 03:45:14;;;;;;;1.33;1.23;;;23.10;66.30;;;;;;5053729;28;20516;-90
2022/10/03 03:48:11;;;;;;;1.23;1.13;;;23.10;66.30;;;;;;5053791;28;20861;-85
2022/10/03 03:50:48;;;;;;;1.00;0.90;;;23.10;66.20;;;;;;5053612;28;20516;-84
2022/10/03 03:53:40;;;;;;;1.20;1.10;;;23.10;66.30;;;;;;5053915;28;20459;-85
2022/10/03 03:56:28;;;;;;;1.20;1.10;;;23.10;66.30;;;;;;5053259;28;20912;-90
2022/10/03 03:59:07;;;;;;;1.10;1.00;;;23.10;66.30;;;;;;5053582;28;20442;-85
2022/10/03 04:01:55;;;;;;;1.73;1.00;;;23.10;66.30;;;;;;5053526;28;20818;-90
2022/10/03 04:04:39;;;;;;;1.00;0.90;;;23.10;66.30;;;;;;5053190;28;20992;-84
2022/10/03 04:07:20;;;;;;;1.00;0.90;;;23.10;66.40;;;;;;5053548;28;20525;-84
2022/10/03 04:10:01;;;;;;;1.10;1.00;;;23.10;66.30;;;;;;5053305;28;20445;-84
2022/10/03 04:12:42;;;;;;;1.10;0.90;;;23.20;66.50;;;;;;5053602;28;20494;-84
2022/10/03 04:15:30;;;;;;;1.23;1.13;;;23.10;66.30;;;;;;5053478;28;20460;-89
2022/10/03 04:21:12;;;;;;;1.10;1.00;;;23.10;66.30;;;;;;5053335;28;20790;-84
2022/10/03 04:23:56;;;;;;;1.20;1.10;;;23.20;66.50;;;;;;5053192;28;20443;-90
2022/10/03 04:26:45;;;;;;;1.47;1.10;;;23.00;66.20;;;;;;5053207;28;20544;-88
2022/10/03 04:29:46;;;;;;;1.23;1.13;;;23.10;66.30;;;;;;5053002;28;20430;-84
2022/10/03 04:32:33;;;;;;;1.10;1.00;;;23.10;66.20;;;;;;5030876;28;20850;-87
2022/10/03 04:35:26;;;;;;;1.10;1.00;;;23.10;66.40;;;;;;5053470;28;20436;-84
2022/10/03 04:38:01;;;;;;;0.97;0.87;;;23.00;66.20;;;;;;5032461;28;20434;-89
2022/10/03 04:40:41;;;;;;;1.20;1.00;;;23.00;66.20;;;;;;5053386;28;20440;-88
2022/10/03 04:43:13;;;;;;;1.10;0.90;;;23.10;66.30;;;;;;5053108;28;20932;-84
2022/10/03 04:46:05;;;;;;;1.07;0.97;;;23.00;66.10;;;;;;5052947;28;20536;-84
2022/10/03 04:48:40;;;;;;;1.23;1.13;;;23.00;66.10;;;;;;5053104;28;20441;-84
2022/10/03 04:51:18;;;;;;;1.10;1.00;;;23.00;66.20;;;;;;5053045;28;20484;-84
2022/10/03 04:53:53;;;;;;;1.00;0.90;;;23.00;66.20;;;;;;5053164;28;20445;-86
2022/10/03 04:56:34;;;;;;;1.27;1.00;;;23.10;66.20;;;;;;5053013;28;20946;-89
2022/10/03 04:59:10;;;;;;;1.20;1.10;;;23.00;66.00;;;;;;5052979;28;20935;-84
2022/10/03 05:01:44;;;;;;;1.30;1.20;;;23.00;66.00;;;;;;5053033;28;20483;-84
2022/10/03 05:04:24;;;;;;;1.10;1.00;;;23.00;66.00;;;;;;5052741;28;20461;-84
2022/10/03 05:07:01;;;;;;;1.27;0.90;;;23.00;65.90;;;;;;5052983;28;20479;-84
2022/10/03 05:09:37;;;;;;;1.30;1.00;;;23.00;66.00;;;;;;5056371;28;20443;-84
2022/10/03 05:12:14;;;;;;;1.00;0.90;;;23.00;65.90;;;;;;5056516;28;20488;-89
2022/10/03 05:14:57;;;;;;;1.10;1.00;;;23.00;66.00;;;;;;5056738;28;20464;-89
2022/10/03 05:17:30;;;;;;;1.13;1.03;;;23.00;66.00;;;;;;5056675;28;20445;-90
2022/10/03 05:20:17;;;;;;;1.30;1.03;;;23.00;66.00;;;;;;5056401;28;20437;-84
2022/10/03 05:22:50;;;;;;;1.50;1.10;;;23.00;66.00;;;;;;5056586;28;20456;-84
2022/10/03 05:25:26;;;;;;;1.30;1.20;;;23.00;66.00;;;;;;5056490;28;20432;-85
2022/10/03 05:28:01;;;;;;;1.10;1.00;;;23.00;66.10;;;;;;5056256;28;20976;-90
2022/10/03 05:30:39;;;;;;;1.23;1.00;;;23.00;66.00;;;;;;5056069;28;20441;-84
2022/10/03 05:33:13;;;;;;;1.20;1.10;;;23.00;66.10;;;;;;5056381;28;20445;-88
2022/10/03 05:35:59;;;;;;;1.10;1.00;;;23.00;66.10;;;;;;5056033;28;20541;-85
2022/10/03 05:38:52;;;;;;;1.10;1.00;;;23.00;65.90;;;;;;5056060;28;21002;-85
2022/10/03 05:41:22;;;;;;;1.17;1.07;;;23.00;65.90;;;;;;5056133;28;20452;-84
2022/10/03 05:44:01;;;;;;;1.37;1.10;;;23.00;66.00;;;;;;5056150;28;20441;-88
2022/10/03 05:46:45;;;;;;;1.30;1.20;;;23.00;66.00;;;;;;5056009;28;20451;-84
2022/10/03 05:49:43;;;;;;;1.03;0.93;;;23.20;66.20;;;;;;5056029;28;20804;-84
2022/10/03 05:52:34;;;;;;;0.90;0.80;;;23.00;65.90;;;;;;5055784;28;20489;-84
2022/10/03 05:55:28;;;;;;;1.37;1.27;;;23.00;65.90;;;;;;5055653;28;20445;-84
2022/10/03 05:58:26;;;;;;;1.07;0.97;;;23.00;66.00;;;;;;5055835;28;20452;-84
2022/10/03 06:01:22;;;;;;;1.00;0.90;;;23.00;66.00;;;;;;5055458;28;20530;-84
2022/10/03 06:04:11;;;;;;;1.37;1.27;;;23.00;65.90;;;;;;5055411;28;20488;-88
2022/10/03 06:06:53;;;;;;;1.10;1.00;;;23.00;66.00;;;;;;5055639;28;20442;-85
2022/10/03 06:09:42;;;;;;;1.10;1.00;;;23.00;65.90;;;;;;5055681;28;20473;-84
2022/10/03 06:12:13;;;;;;;1.10;1.00;;;23.00;66.00;;;;;;5055664;28;20571;-89
2022/10/03 06:15:12;;;;;;;0.80;0.80;;;23.00;66.00;;;;;;5055152;28;20450;-85
2022/10/03 06:17:57;;;;;;;1.00;0.90;;;23.00;65.90;;;;;;5032734;28;20479;-90
2022/10/03 06:21:02;;;;;;;1.27;1.17;;;23.00;65.80;;;;;;5055378;28;20442;-84
2022/10/03 06:23:58;;;;;;;1.00;0.90;;;23.00;65.90;;;;;;5044570;28;20444;-85
2022/10/03 06:26:59;;;;;;;1.00;0.90;;;23.00;66.00;;;;;;5055402;28;20442;-85
2022/10/03 06:29:50;;;;;;;1.10;1.00;;;23.00;65.90;;;;;;5055245;28;20445;-86
2022/10/03 06:32:45;;;;;;;1.20;1.10;;;23.00;66.00;;;;;;5053266;28;20485;-84
2022/10/03 06:35:54;;;;;;;0.97;0.90;;;23.00;66.00;;;;;;5054888;28;20458;-85
2022/10/03 06:39:08;;;;;;;1.10;1.00;;;23.00;66.00;;;;;;5055148;28;20650;-85
2022/10/03 06:42:19;;;;;;;1.17;1.07;;;23.00;66.00;;;;;;5054685;28;20434;-84
2022/10/03 06:45:16;;;;;;;1.00;0.90;;;23.00;66.00;;;;;;5054659;28;20460;-84
2022/10/03 06:48:03;;;;;;;1.00;0.90;;;22.90;66.00;;;;;;5044038;28;20442;-84
2022/10/03 06:50:53;;;;;;;1.10;0.90;;;23.00;66.10;;;;;;5054711;28;20452;-90
2022/10/03 06:53:43;;;;;;;1.00;0.90;;;23.00;66.00;;;;;;5054819;28;20445;-84
2022/10/03 06:56:59;;;;;;;1.00;0.90;;;23.00;66.00;;;;;;5049504;28;20445;-88
2022/10/03 06:59:47;;;;;;;1.10;1.00;;;23.00;66.00;;;;;;5012646;28;20458;-87
2022/10/03 07:02:50;;;;;;;1.03;0.93;;;22.90;66.00;;;;;;5012770;28;20474;-84
2022/10/03 07:06:00;;;;;;;1.10;1.00;;;22.90;66.00;;;;;;5047206;28;20477;-84
2022/10/03 07:09:01;;;;;;;2.07;1.97;;;23.00;66.00;;;;;;5043657;28;21006;-84
2022/10/03 07:12:05;;;;;;;1.40;1.30;;;22.90;66.20;;;;;;5054479;28;20509;-84
2022/10/03 07:15:08;;;;;;;1.37;1.00;;;22.90;66.10;;;;;;5054003;28;20499;-83
2022/10/03 07:17:58;;;;;;;1.20;0.97;;;22.90;66.10;;;;;;5053717;28;20796;-84
2022/10/03 07:21:04;;;;;;;2.13;1.27;;;23.00;66.30;;;;;;5054249;28;20456;-83
2022/10/03 07:24:01;;;;;;;1.43;1.33;;;23.00;66.30;;;;;;5054234;28;20446;-84
2022/10/03 07:26:58;;;;;;;1.20;1.10;;;23.00;66.50;;;;;;5053973;28;20440;-84
2022/10/03 07:29:56;;;;;;;1.33;1.23;;;23.00;66.50;;;;;;5053949;28;20449;-84
2022/10/03 07:33:14;;;;;;;3.63;1.27;;;23.00;66.60;;;;;;5054051;28;20493;-84
2022/10/03 07:38:58;;;;;;;2.30;1.20;;;23.00;66.50;;;;;;5054241;28;20492;-88
2022/10/03 07:41:53;;;;;;;1.10;1.00;;;23.10;66.40;;;;;;5053919;28;20456;-85
2022/10/03 07:45:00;;;;;;;0.87;0.80;;;23.10;66.30;;;;;;5047086;28;20456;-95
2022/10/03 07:47:58;;;;;;;1.00;0.90;;;23.10;66.10;;;;;;5055493;28;20532;-95
2022/10/03 07:54:48;;;;;;;1.37;1.27;;;23.10;66.10;;;;;;5052858;28;20432;-95
2022/10/03 07:57:44;;;;;;;1.53;1.27;;;23.20;66.20;;;;;;5054538;28;20865;-89
